createdAt,value
2022-12-11T00:00:28.417Z,95473.75
2022-12-11T00:10:52.213Z,95465.94
2022-12-11T00:20:56.125Z,95450.73
2022-12-11T00:31:00.401Z,95451.35
2022-12-11T00:41:04.366Z,95443.39
2022-12-11T00:51:08.336Z,95441.65
2022-12-11T01:01:16.119Z,95440.13
2022-12-11T01:11:21.403Z,95436.85
2022-12-11T01:21:25.582Z,95435.32
2022-12-11T01:31:30.371Z,95418.42
2022-12-11T01:41:34.126Z,95425.85
2022-12-11T01:51:44.285Z,95430.90
2022-12-11T02:01:58.877Z,95413.15
2022-12-11T02:12:06.006Z,95403.86
2022-12-11T02:22:17.164Z,95396.98
2022-12-11T02:32:36.151Z,95384.98
2022-12-11T02:42:42.581Z,95384.92
2022-12-11T02:52:49.220Z,95384.58
2022-12-11T03:02:53.223Z,95374.42
2022-12-11T03:12:59.617Z,95369.58
2022-12-11T03:23:24.463Z,95362.02
2022-12-11T03:33:43.434Z,95347.71
2022-12-11T03:43:50.694Z,95336.78
2022-12-11T03:53:55.770Z,95333.92
2022-12-11T04:03:59.606Z,95336.52
2022-12-11T04:14:30.990Z,95338.73
2022-12-11T04:24:35.122Z,95338.73
2022-12-11T04:34:41.008Z,95340.45
2022-12-11T04:44:44.874Z,95337.02
2022-12-11T04:54:49.449Z,95342.50
2022-12-11T05:04:53.346Z,95338.96
2022-12-11T05:14:57.266Z,95324.30
2022-12-11T05:25:00.933Z,95305.71
2022-12-11T05:35:05.322Z,95304.02
2022-12-11T05:45:10.148Z,95299.70
2022-12-11T05:55:14.389Z,95279.81
2022-12-11T06:05:18.173Z,95277.21
2022-12-11T06:15:22.553Z,95279.83
2022-12-11T06:25:26.509Z,95296.23
2022-12-11T06:35:30.537Z,95297.06
2022-12-11T06:45:34.380Z,95303.86
2022-12-11T06:55:38.325Z,95304.15
2022-12-11T07:05:42.281Z,95308.98
2022-12-11T07:15:46.358Z,95305.17
2022-12-11T07:25:50.447Z,95296.42
2022-12-11T07:35:54.302Z,95310.45
2022-12-11T07:46:08.186Z,95313.55
2022-12-11T07:56:14.442Z,95320.61
2022-12-11T08:06:19.320Z,95322.77
2022-12-11T08:16:23.941Z,95330.30
2022-12-11T08:26:30.432Z,95325.03
2022-12-11T08:36:34.918Z,95316.86
2022-12-11T08:46:40.293Z,95315.55
2022-12-11T08:56:45.016Z,95327.84
2022-12-11T09:06:50.256Z,95330.29
2022-12-11T09:16:54.298Z,95335.98
2022-12-11T09:26:58.252Z,95336.85
2022-12-11T09:37:03.045Z,95325.60
2022-12-11T09:47:31.378Z,95323.33
2022-12-11T09:58:19.447Z,95324.84
2022-12-11T10:08:51.066Z,95325.98
2022-12-11T10:18:56.221Z,95328.41
2022-12-11T10:29:01.753Z,95321.60
2022-12-11T10:39:18.132Z,95330.08
2022-12-11T10:49:28.063Z,95333.38
2022-12-11T10:59:44.164Z,95315.52
2022-12-11T11:09:49.195Z,95312.59
2022-12-11T11:19:53.346Z,95298.05
2022-12-11T11:30:02.027Z,95295.19
2022-12-11T11:40:23.493Z,95308.29
2022-12-11T11:50:34.526Z,95311.62
2022-12-11T12:00:39.307Z,95311.46
2022-12-11T12:11:06.719Z,95322.84
2022-12-11T12:21:19.888Z,95327.27
2022-12-11T12:31:54.214Z,95325.86
2022-12-11T12:42:20.325Z,95307.68
2022-12-11T12:52:32.707Z,95310.02
2022-12-11T13:02:51.086Z,95322.45
2022-12-11T13:12:56.638Z,95347.08
2022-12-11T13:23:07.414Z,95358.90
2022-12-11T13:33:19.737Z,95364.84
2022-12-11T13:43:28.090Z,95371.02
2022-12-11T13:53:33.332Z,95373.10
2022-12-11T14:03:42.698Z,95368.06
2022-12-11T14:13:47.475Z,95353.71
2022-12-11T14:23:54.931Z,95359.92
2022-12-11T14:34:09.845Z,95367.31
2022-12-11T14:44:18.345Z,95372.35
2022-12-11T14:54:39.566Z,95387.95
2022-12-11T15:04:44.147Z,95394.42
2022-12-11T15:14:54.606Z,95401.91
2022-12-11T15:25:01.611Z,95403.94
2022-12-11T15:35:22.872Z,95420.07
2022-12-11T15:45:30.286Z,95432.04
2022-12-11T15:55:35.426Z,95433.95
2022-12-11T16:05:42.198Z,95437.00
2022-12-11T16:15:51.195Z,95433.34
2022-12-11T16:25:56.041Z,95438.40
2022-12-11T16:36:01.079Z,95444.04
2022-12-11T16:46:06.451Z,95441.39
2022-12-11T16:56:15.073Z,95448.29
2022-12-11T17:06:20.607Z,95444.87
2022-12-11T17:16:29.502Z,95454.36
2022-12-11T17:26:35.237Z,95455.23
2022-12-11T17:36:40.438Z,95470.30
2022-12-11T17:46:45.368Z,95476.11
2022-12-11T17:56:51.833Z,95490.46
2022-12-11T18:06:56.806Z,95496.96
2022-12-11T18:17:05.013Z,95499.79
2022-12-11T18:27:11.942Z,95501.90
2022-12-11T18:37:24.696Z,95496.80
2022-12-11T18:47:33.382Z,95500.21
2022-12-11T18:57:38.361Z,95505.50
2022-12-11T19:07:44.837Z,95497.22
2022-12-11T19:17:51.113Z,95495.50
2022-12-11T19:27:58.284Z,95490.46
2022-12-11T19:38:04.327Z,95486.96
2022-12-11T19:48:09.813Z,95477.82
2022-12-11T19:58:15.212Z,95479.27
2022-12-11T20:08:43.733Z,95490.44
2022-12-11T20:18:46.916Z,95495.35
2022-12-11T20:28:57.641Z,95500.59
2022-12-11T20:39:06.075Z,95503.26
2022-12-11T20:49:13.944Z,95500.56
2022-12-11T20:59:20.275Z,95505.35
2022-12-11T21:09:27.209Z,95515.89
2022-12-11T21:19:31.899Z,95520.29
2022-12-11T21:29:35.939Z,95523.54
2022-12-11T21:39:42.007Z,95520.24
2022-12-11T21:49:47.913Z,95518.88
2022-12-11T21:59:52.596Z,95527.73
2022-12-11T22:09:56.524Z,95521.44
2022-12-11T22:20:00.705Z,95510.47
2022-12-11T22:30:05.471Z,95505.77
2022-12-11T22:40:09.722Z,95507.89
2022-12-11T22:50:14.392Z,95510.35
2022-12-11T23:00:18.614Z,95512.86
2022-12-11T23:10:22.444Z,95520.29
2022-12-11T23:20:26.082Z,95521.20
2022-12-11T23:30:30.022Z,95512.18
2022-12-11T23:40:34.756Z,95517.86
2022-12-11T23:50:40.351Z,95520.77
